sensor_id;sensor_type;location;lat;lon;timestamp;temperature;humidity
21568;DHT22;10944;42.590;12.630;2022-11-20T00:00:56;10.30;99.90
21568;DHT22;10944;42.590;12.630;2022-11-20T00:03:22;10.30;99.90
21568;DHT22;10944;42.590;12.630;2022-11-20T00:05:48;10.20;99.90
21568;DHT22;10944;42.590;12.630;2022-11-20T00:08:14;10.00;99.90
21568;DHT22;10944;42.590;12.630;2022-11-20T00:10:40;10.10;99.90
21568;DHT22;10944;42.590;12.630;2022-11-20T00:13:07;10.00;99.90
21568;DHT22;10944;42.590;12.630;2022-11-20T00:15:33;10.00;99.90
21568;DHT22;10944;42.590;12.630;2022-11-20T00:17:59;10.00;99.90
21568;DHT22;10944;42.590;12.630;2022-11-20T00:20:24;10.00;99.90
21568;DHT22;10944;42.590;12.630;2022-11-20T00:22:50;10.00;99.90
21568;DHT22;10944;42.590;12.630;2022-11-20T00:25:16;9.90;99.90
21568;DHT22;10944;42.590;12.630;2022-11-20T00:27:42;10.00;99.90
21568;DHT22;10944;42.590;12.630;2022-11-20T00:30:08;10.00;99.90
21568;DHT22;10944;42.590;12.630;2022-11-20T00:32:34;10.00;99.90
21568;DHT22;10944;42.590;12.630;2022-11-20T00:34:59;10.00;99.90
21568;DHT22;10944;42.590;12.630;2022-11-20T00:37:25;10.00;99.90
21568;DHT22;10944;42.590;12.630;2022-11-20T00:39:51;10.00;99.90
21568;DHT22;10944;42.590;12.630;2022-11-20T00:42:17;10.10;99.90
21568;DHT22;10944;42.590;12.630;2022-11-20T00:44:44;10.10;99.90
21568;DHT22;10944;42.590;12.630;2022-11-20T00:47:10;10.00;99.90
21568;DHT22;10944;42.590;12.630;2022-11-20T00:49:36;10.00;99.90
21568;DHT22;10944;42.590;12.630;2022-11-20T00:52:01;10.00;99.90
21568;DHT22;10944;42.590;12.630;2022-11-20T00:54:27;10.00;99.90
21568;DHT22;10944;42.590;12.630;2022-11-20T00:56:53;10.00;99.90
21568;DHT22;10944;42.590;12.630;2022-11-20T00:59:19;10.00;99.90
21568;DHT22;10944;42.590;12.630;2022-11-20T01:01:45;10.10;99.90
21568;DHT22;10944;42.590;12.630;2022-11-20T01:04:11;10.10;99.90
21568;DHT22;10944;42.590;12.630;2022-11-20T01:06:38;10.10;99.90
21568;DHT22;10944;42.590;12.630;2022-11-20T01:09:12;10.00;99.90
21568;DHT22;10944;42.590;12.630;2022-11-20T01:11:43;10.10;99.90
21568;DHT22;10944;42.590;12.630;2022-11-20T01:14:12;10.10;99.90
21568;DHT22;10944;42.590;12.630;2022-11-20T01:16:40;10.00;99.90
21568;DHT22;10944;42.590;12.630;2022-11-20T01:19:14;10.00;99.90
21568;DHT22;10944;42.590;12.630;2022-11-20T01:21:41;10.00;99.90
21568;DHT22;10944;42.590;12.630;2022-11-20T01:24:11;10.10;99.90
21568;DHT22;10944;42.590;12.630;2022-11-20T01:26:39;10.10;99.90
21568;DHT22;10944;42.590;12.630;2022-11-20T01:29:07;10.00;99.90
21568;DHT22;10944;42.590;12.630;2022-11-20T01:31:35;10.00;99.90
21568;DHT22;10944;42.590;12.630;2022-11-20T01:34:05;10.10;99.90
21568;DHT22;10944;42.590;12.630;2022-11-20T01:36:33;10.10;99.90
21568;DHT22;10944;42.590;12.630;2022-11-20T01:39:04;10.10;99.90
21568;DHT22;10944;42.590;12.630;2022-11-20T01:41:32;10.00;99.90
21568;DHT22;10944;42.590;12.630;2022-11-20T01:44:20;10.00;99.90
21568;DHT22;10944;42.590;12.630;2022-11-20T01:47:01;10.10;99.90
21568;DHT22;10944;42.590;12.630;2022-11-20T01:49:40;10.00;99.90
21568;DHT22;10944;42.590;12.630;2022-11-20T01:52:17;9.90;99.90
21568;DHT22;10944;42.590;12.630;2022-11-20T01:54:51;9.90;99.90
21568;DHT22;10944;42.590;12.630;2022-11-20T01:57:19;9.90;99.90
21568;DHT22;10944;42.590;12.630;2022-11-20T01:59:50;9.90;99.90
21568;DHT22;10944;42.590;12.630;2022-11-20T02:02:20;9.90;99.90
21568;DHT22;10944;42.590;12.630;2022-11-20T02:04:49;9.90;99.90
21568;DHT22;10944;42.590;12.630;2022-11-20T02:07:17;9.90;99.90
21568;DHT22;10944;42.590;12.630;2022-11-20T02:09:43;9.90;99.90
21568;DHT22;10944;42.590;12.630;2022-11-20T02:12:09;9.90;99.90
21568;DHT22;10944;42.590;12.630;2022-11-20T02:14:56;9.80;99.90
21568;DHT22;10944;42.590;12.630;2022-11-20T02:17:23;9.80;99.90
21568;DHT22;10944;42.590;12.630;2022-11-20T02:19:49;9.80;99.90
21568;DHT22;10944;42.590;12.630;2022-11-20T02:22:24;9.80;99.90
21568;DHT22;10944;42.590;12.630;2022-11-20T02:24:52;9.80;99.90
21568;DHT22;10944;42.590;12.630;2022-11-20T02:27:18;9.80;99.90
21568;DHT22;10944;42.590;12.630;2022-11-20T02:32:25;9.90;99.90
21568;DHT22;10944;42.590;12.630;2022-11-20T02:34:51;9.90;99.90
21568;DHT22;10944;42.590;12.630;2022-11-20T02:37:18;9.90;99.90
21568;DHT22;10944;42.590;12.630;2022-11-20T02:39:46;9.80;99.90
21568;DHT22;10944;42.590;12.630;2022-11-20T02:42:13;9.90;99.90
21568;DHT22;10944;42.590;12.630;2022-11-20T02:44:39;9.90;99.90
21568;DHT22;10944;42.590;12.630;2022-11-20T02:47:04;9.90;99.90
21568;DHT22;10944;42.590;12.630;2022-11-20T02:49:30;9.90;99.90
21568;DHT22;10944;42.590;12.630;2022-11-20T02:51:56;9.90;99.90
21568;DHT22;10944;42.590;12.630;2022-11-20T02:54:22;9.90;99.90
21568;DHT22;10944;42.590;12.630;2022-11-20T02:56:48;9.90;99.90
21568;DHT22;10944;42.590;12.630;2022-11-20T02:59:13;9.90;99.90
21568;DHT22;10944;42.590;12.630;2022-11-20T03:01:39;9.90;99.90
21568;DHT22;10944;42.590;12.630;2022-11-20T03:04:05;10.00;99.90
21568;DHT22;10944;42.590;12.630;2022-11-20T03:06:31;9.90;99.90
21568;DHT22;10944;42.590;12.630;2022-11-20T03:08:57;9.90;99.90
21568;DHT22;10944;42.590;12.630;2022-11-20T03:11:23;9.80;99.90
21568;DHT22;10944;42.590;12.630;2022-11-20T03:13:48;9.90;99.90
21568;DHT22;10944;42.590;12.630;2022-11-20T03:16:17;9.80;99.90
21568;DHT22;10944;42.590;12.630;2022-11-20T03:18:44;9.90;99.90
21568;DHT22;10944;42.590;12.630;2022-11-20T03:21:11;9.90;99.90
21568;DHT22;10944;42.590;12.630;2022-11-20T03:23:37;9.90;99.90
21568;DHT22;10944;42.590;12.630;2022-11-20T03:26:19;9.80;99.90
21568;DHT22;10944;42.590;12.630;2022-11-20T03:28:50;9.90;99.90
21568;DHT22;10944;42.590;12.630;2022-11-20T03:31:17;9.80;99.90
21568;DHT22;10944;42.590;12.630;2022-11-20T03:33:43;9.90;99.90
21568;DHT22;10944;42.590;12.630;2022-11-20T03:36:12;9.80;99.90
21568;DHT22;10944;42.590;12.630;2022-11-20T03:38:38;9.80;99.90
21568;DHT22;10944;42.590;12.630;2022-11-20T03:41:12;9.80;99.90
21568;DHT22;10944;42.590;12.630;2022-11-20T03:43:39;9.80;99.90
21568;DHT22;10944;42.590;12.630;2022-11-20T03:46:05;9.80;99.90
21568;DHT22;10944;42.590;12.630;2022-11-20T03:48:31;9.70;99.90
21568;DHT22;10944;42.590;12.630;2022-11-20T03:53:37;9.80;99.90
21568;DHT22;10944;42.590;12.630;2022-11-20T03:56:03;9.80;99.90
21568;DHT22;10944;42.590;12.630;2022-11-20T03:58:29;9.80;99.90
21568;DHT22;10944;42.590;12.630;2022-11-20T04:00:55;9.80;99.90
21568;DHT22;10944;42.590;12.630;2022-11-20T04:03:21;9.80;99.90
21568;DHT22;10944;42.590;12.630;2022-11-20T04:05:46;9.80;99.90
21568;DHT22;10944;42.590;12.630;2022-11-20T04:08:12;9.80;99.90
21568;DHT22;10944;42.590;12.630;2022-11-20T04:10:38;9.80;99.90
21568;DHT22;10944;42.590;12.630;2022-11-20T04:13:03;9.80;99.90
21568;DHT22;10944;42.590;12.630;2022-11-20T04:15:29;9.80;99.90
21568;DHT22;10944;42.590;12.630;2022-11-20T04:17:55;9.80;99.90
21568;DHT22;10944;42.590;12.630;2022-11-20T04:20:21;9.80;99.90
21568;DHT22;10944;42.590;12.630;2022-11-20T04:22:46;9.80;99.90
21568;DHT22;10944;42.590;12.630;2022-11-20T04:25:12;9.90;99.90
21568;DHT22;10944;42.590;12.630;2022-11-20T04:27:38;9.80;99.90
21568;DHT22;10944;42.590;12.630;2022-11-20T04:30:04;9.80;99.90
21568;DHT22;10944;42.590;12.630;2022-11-20T04:32:30;9.90;99.90
21568;DHT22;10944;42.590;12.630;2022-11-20T04:34:55;9.90;99.90
21568;DHT22;10944;42.590;12.630;2022-11-20T04:37:21;9.90;99.90
21568;DHT22;10944;42.590;12.630;2022-11-20T04:39:47;9.90;99.90
21568;DHT22;10944;42.590;12.630;2022-11-20T04:42:12;9.90;99.90
21568;DHT22;10944;42.590;12.630;2022-11-20T04:44:54;10.00;99.90
21568;DHT22;10944;42.590;12.630;2022-11-20T04:47:19;9.90;99.90
21568;DHT22;10944;42.590;12.630;2022-11-20T04:49:45;10.00;99.90
21568;DHT22;10944;42.590;12.630;2022-11-20T04:52:11;9.90;99.90
21568;DHT22;10944;42.590;12.630;2022-11-20T04:54:36;9.90;99.90
21568;DHT22;10944;42.590;12.630;2022-11-20T04:57:02;9.80;99.90
21568;DHT22;10944;42.590;12.630;2022-11-20T04:59:28;9.80;99.90
21568;DHT22;10944;42.590;12.630;2022-11-20T05:01:54;9.80;99.90
21568;DHT22;10944;42.590;12.630;2022-11-20T05:04:19;9.90;99.90
21568;DHT22;10944;42.590;12.630;2022-11-20T05:06:45;9.90;99.90
21568;DHT22;10944;42.590;12.630;2022-11-20T05:09:12;9.90;99.90
21568;DHT22;10944;42.590;12.630;2022-11-20T05:11:37;9.80;99.90
21568;DHT22;10944;42.590;12.630;2022-11-20T05:14:03;9.80;99.90
21568;DHT22;10944;42.590;12.630;2022-11-20T05:16:29;9.80;99.90
21568;DHT22;10944;42.590;12.630;2022-11-20T05:18:55;9.80;99.90
21568;DHT22;10944;42.590;12.630;2022-11-20T05:21:21;9.90;99.90
21568;DHT22;10944;42.590;12.630;2022-11-20T05:23:47;9.90;99.90
21568;DHT22;10944;42.590;12.630;2022-11-20T05:26:21;9.90;99.90
21568;DHT22;10944;42.590;12.630;2022-11-20T05:28:48;9.90;99.90
21568;DHT22;10944;42.590;12.630;2022-11-20T05:31:16;9.90;99.90
21568;DHT22;10944;42.590;12.630;2022-11-20T05:33:43;9.90;99.90
21568;DHT22;10944;42.590;12.630;2022-11-20T05:36:10;10.00;99.90
21568;DHT22;10944;42.590;12.630;2022-11-20T05:38:36;9.90;99.90
21568;DHT22;10944;42.590;12.630;2022-11-20T05:41:11;9.90;99.90
21568;DHT22;10944;42.590;12.630;2022-11-20T05:43:39;10.00;99.90
21568;DHT22;10944;42.590;12.630;2022-11-20T05:46:07;10.00;99.90
21568;DHT22;10944;42.590;12.630;2022-11-20T05:48:34;10.00;99.90
21568;DHT22;10944;42.590;12.630;2022-11-20T05:51:01;10.00;99.90
21568;DHT22;10944;42.590;12.630;2022-11-20T05:53:27;10.00;99.90
21568;DHT22;10944;42.590;12.630;2022-11-20T05:55:58;10.00;99.90
21568;DHT22;10944;42.590;12.630;2022-11-20T05:58:24;10.00;99.90
21568;DHT22;10944;42.590;12.630;2022-11-20T06:00:49;10.00;99.90
21568;DHT22;10944;42.590;12.630;2022-11-20T06:03:15;10.00;99.90
21568;DHT22;10944;42.590;12.630;2022-11-20T06:05:41;10.00;99.90
21568;DHT22;10944;42.590;12.630;2022-11-20T06:08:07;9.90;99.90
21568;DHT22;10944;42.590;12.630;2022-11-20T06:10:32;9.90;99.90
21568;DHT22;10944;42.590;12.630;2022-11-20T06:12:58;9.90;99.90
21568;DHT22;10944;42.590;12.630;2022-11-20T06:15:24;9.90;99.90
21568;DHT22;10944;42.590;12.630;2022-11-20T06:17:54;10.00;99.90
21568;DHT22;10944;42.590;12.630;2022-11-20T06:20:21;10.00;99.90
21568;DHT22;10944;42.590;12.630;2022-11-20T06:22:46;10.00;99.90
21568;DHT22;10944;42.590;12.630;2022-11-20T06:25:12;10.00;99.90
21568;DHT22;10944;42.590;12.630;2022-11-20T06:27:38;9.90;99.90
21568;DHT22;10944;42.590;12.630;2022-11-20T06:30:04;9.90;99.90
21568;DHT22;10944;42.590;12.630;2022-11-20T06:32:30;10.00;99.90
21568;DHT22;10944;42.590;12.630;2022-11-20T06:34:56;10.00;99.90
21568;DHT22;10944;42.590;12.630;2022-11-20T06:37:21;10.00;99.90
21568;DHT22;10944;42.590;12.630;2022-11-20T06:39:47;10.00;99.90
21568;DHT22;10944;42.590;12.630;2022-11-20T06:42:13;10.00;99.90
21568;DHT22;10944;42.590;12.630;2022-11-20T06:44:38;10.00;99.90
21568;DHT22;10944;42.590;12.630;2022-11-20T06:47:04;10.00;99.90
21568;DHT22;10944;42.590;12.630;2022-11-20T06:49:30;10.00;99.90
21568;DHT22;10944;42.590;12.630;2022-11-20T06:51:55;10.00;99.90
21568;DHT22;10944;42.590;12.630;2022-11-20T06:54:21;10.10;99.90
21568;DHT22;10944;42.590;12.630;2022-11-20T06:56:47;10.10;99.90
21568;DHT22;10944;42.590;12.630;2022-11-20T06:59:14;10.20;99.90
21568;DHT22;10944;42.590;12.630;2022-11-20T07:01:42;10.20;99.90
21568;DHT22;10944;42.590;12.630;2022-11-20T07:04:08;10.10;99.90
21568;DHT22;10944;42.590;12.630;2022-11-20T07:06:34;10.10;99.90
21568;DHT22;10944;42.590;12.630;2022-11-20T07:09:00;10.20;99.90
21568;DHT22;10944;42.590;12.630;2022-11-20T07:11:25;10.20;99.90
21568;DHT22;10944;42.590;12.630;2022-11-20T07:13:51;10.20;99.90
21568;DHT22;10944;42.590;12.630;2022-11-20T07:16:17;10.20;99.90
21568;DHT22;10944;42.590;12.630;2022-11-20T07:18:42;10.20;99.90
21568;DHT22;10944;42.590;12.630;2022-11-20T07:21:09;10.10;99.90
21568;DHT22;10944;42.590;12.630;2022-11-20T07:23:36;10.20;99.90
21568;DHT22;10944;42.590;12.630;2022-11-20T07:26:06;10.10;99.90
21568;DHT22;10944;42.590;12.630;2022-11-20T07:28:32;10.10;99.90
21568;DHT22;10944;42.590;12.630;2022-11-20T07:30:57;10.10;99.90
21568;DHT22;10944;42.590;12.630;2022-11-20T07:33:23;10.10;99.90
21568;DHT22;10944;42.590;12.630;2022-11-20T07:35:49;10.00;99.90
21568;DHT22;10944;42.590;12.630;2022-11-20T07:38:15;10.00;99.90
21568;DHT22;10944;42.590;12.630;2022-11-20T07:40:40;10.10;99.90
21568;DHT22;10944;42.590;12.630;2022-11-20T07:43:06;10.10;99.90
21568;DHT22;10944;42.590;12.630;2022-11-20T07:45:32;10.10;99.90
21568;DHT22;10944;42.590;12.630;2022-11-20T07:47:57;10.10;99.90
21568;DHT22;10944;42.590;12.630;2022-11-20T07:50:23;10.10;99.90
21568;DHT22;10944;42.590;12.630;2022-11-20T07:52:49;10.00;99.90
21568;DHT22;10944;42.590;12.630;2022-11-20T07:55:15;9.90;99.90
21568;DHT22;10944;42.590;12.630;2022-11-20T07:57:41;10.00;99.90
21568;DHT22;10944;42.590;12.630;2022-11-20T08:00:08;10.00;99.90
21568;DHT22;10944;42.590;12.630;2022-11-20T08:02:40;9.90;99.90
21568;DHT22;10944;42.590;12.630;2022-11-20T08:05:07;10.00;99.90
21568;DHT22;10944;42.590;12.630;2022-11-20T08:07:40;10.00;99.90
21568;DHT22;10944;42.590;12.630;2022-11-20T08:10:07;10.00;99.90
21568;DHT22;10944;42.590;12.630;2022-11-20T08:12:33;10.10;99.90
21568;DHT22;10944;42.590;12.630;2022-11-20T08:15:17;10.30;99.90
21568;DHT22;10944;42.590;12.630;2022-11-20T08:17:43;10.40;99.90
21568;DHT22;10944;42.590;12.630;2022-11-20T08:20:09;10.60;99.90
21568;DHT22;10944;42.590;12.630;2022-11-20T08:22:35;10.60;99.90
21568;DHT22;10944;42.590;12.630;2022-11-20T08:25:01;10.70;99.90
21568;DHT22;10944;42.590;12.630;2022-11-20T08:27:27;10.80;99.90
21568;DHT22;10944;42.590;12.630;2022-11-20T08:29:52;11.00;99.90
21568;DHT22;10944;42.590;12.630;2022-11-20T08:32:18;11.20;99.90
21568;DHT22;10944;42.590;12.630;2022-11-20T08:34:44;11.30;99.90
21568;DHT22;10944;42.590;12.630;2022-11-20T08:37:09;11.30;99.90
21568;DHT22;10944;42.590;12.630;2022-11-20T08:39:35;11.40;99.90
21568;DHT22;10944;42.590;12.630;2022-11-20T08:42:01;11.50;99.90
21568;DHT22;10944;42.590;12.630;2022-11-20T08:44:26;11.60;99.90
21568;DHT22;10944;42.590;12.630;2022-11-20T08:46:52;11.60;99.90
21568;DHT22;10944;42.590;12.630;2022-11-20T08:49:18;11.60;99.90
21568;DHT22;10944;42.590;12.630;2022-11-20T08:51:44;11.60;99.90
21568;DHT22;10944;42.590;12.630;2022-11-20T08:54:10;11.80;99.90
21568;DHT22;10944;42.590;12.630;2022-11-20T08:56:36;11.80;99.90
21568;DHT22;10944;42.590;12.630;2022-11-20T08:59:02;11.90;99.90
21568;DHT22;10944;42.590;12.630;2022-11-20T09:01:29;11.90;99.90
21568;DHT22;10944;42.590;12.630;2022-11-20T09:03:55;11.90;99.90
21568;DHT22;10944;42.590;12.630;2022-11-20T09:06:25;12.00;99.90
21568;DHT22;10944;42.590;12.630;2022-11-20T09:08:54;12.00;99.90
21568;DHT22;10944;42.590;12.630;2022-11-20T09:11:21;12.10;99.90
21568;DHT22;10944;42.590;12.630;2022-11-20T09:13:47;12.30;99.90
21568;DHT22;10944;42.590;12.630;2022-11-20T09:16:13;12.30;99.90
21568;DHT22;10944;42.590;12.630;2022-11-20T09:18:38;12.30;99.90
21568;DHT22;10944;42.590;12.630;2022-11-20T09:21:06;12.40;99.90
21568;DHT22;10944;42.590;12.630;2022-11-20T09:23:34;12.40;99.90
21568;DHT22;10944;42.590;12.630;2022-11-20T09:26:09;12.30;99.90
21568;DHT22;10944;42.590;12.630;2022-11-20T09:28:35;12.20;99.90
21568;DHT22;10944;42.590;12.630;2022-11-20T09:31:04;12.30;99.90
21568;DHT22;10944;42.590;12.630;2022-11-20T09:33:30;12.20;99.90
21568;DHT22;10944;42.590;12.630;2022-11-20T09:35:55;12.20;99.90
21568;DHT22;10944;42.590;12.630;2022-11-20T09:38:21;12.30;99.90
21568;DHT22;10944;42.590;12.630;2022-11-20T09:41:40;12.30;99.90
21568;DHT22;10944;42.590;12.630;2022-11-20T09:47:19;12.20;99.90
21568;DHT22;10944;42.590;12.630;2022-11-20T09:55:13;12.30;99.90
21568;DHT22;10944;42.590;12.630;2022-11-20T09:57:42;12.40;99.90
21568;DHT22;10944;42.590;12.630;2022-11-20T10:00:12;12.40;99.90
21568;DHT22;10944;42.590;12.630;2022-11-20T10:02:49;12.30;99.90
21568;DHT22;10944;42.590;12.630;2022-11-20T10:05:27;12.20;99.90
21568;DHT22;10944;42.590;12.630;2022-11-20T10:07:55;12.20;99.90
21568;DHT22;10944;42.590;12.630;2022-11-20T10:10:38;12.40;99.90
21568;DHT22;10944;42.590;12.630;2022-11-20T10:16:13;12.70;99.90
21568;DHT22;10944;42.590;12.630;2022-11-20T10:29:37;12.60;99.90
21568;DHT22;10944;42.590;12.630;2022-11-20T10:32:15;12.70;99.90
21568;DHT22;10944;42.590;12.630;2022-11-20T10:35:07;12.80;99.90
21568;DHT22;10944;42.590;12.630;2022-11-20T10:37:44;12.80;99.90
21568;DHT22;10944;42.590;12.630;2022-11-20T10:43:04;12.70;99.90
21568;DHT22;10944;42.590;12.630;2022-11-20T10:45:40;12.50;99.90
21568;DHT22;10944;42.590;12.630;2022-11-20T10:48:25;12.50;99.90
21568;DHT22;10944;42.590;12.630;2022-11-20T10:53:59;12.60;99.90
21568;DHT22;10944;42.590;12.630;2022-11-20T10:56:47;12.50;99.90
21568;DHT22;10944;42.590;12.630;2022-11-20T11:01:48;12.40;99.90
21568;DHT22;10944;42.590;12.630;2022-11-20T11:06:56;12.50;99.90
21568;DHT22;10944;42.590;12.630;2022-11-20T11:09:33;12.60;99.90
21568;DHT22;10944;42.590;12.630;2022-11-20T11:12:00;12.60;99.90
21568;DHT22;10944;42.590;12.630;2022-11-20T11:14:26;12.60;99.90
21568;DHT22;10944;42.590;12.630;2022-11-20T11:16:57;12.60;99.90
21568;DHT22;10944;42.590;12.630;2022-11-20T11:19:22;12.70;99.90
21568;DHT22;10944;42.590;12.630;2022-11-20T11:21:54;12.70;99.90
21568;DHT22;10944;42.590;12.630;2022-11-20T11:24:29;12.60;99.90
21568;DHT22;10944;42.590;12.630;2022-11-20T11:27:04;12.60;99.90
21568;DHT22;10944;42.590;12.630;2022-11-20T11:29:36;12.60;99.90
21568;DHT22;10944;42.590;12.630;2022-11-20T11:32:17;12.60;99.90
21568;DHT22;10944;42.590;12.630;2022-11-20T11:34:43;12.60;99.90
21568;DHT22;10944;42.590;12.630;2022-11-20T11:37:20;12.70;99.90
21568;DHT22;10944;42.590;12.630;2022-11-20T11:39:50;12.40;99.90
21568;DHT22;10944;42.590;12.630;2022-11-20T11:42:19;12.40;99.90
21568;DHT22;10944;42.590;12.630;2022-11-20T11:44:47;12.30;99.90
21568;DHT22;10944;42.590;12.630;2022-11-20T11:55:26;12.30;99.90
21568;DHT22;10944;42.590;12.630;2022-11-20T12:00:28;12.50;99.90
21568;DHT22;10944;42.590;12.630;2022-11-20T12:05:39;12.70;99.90
21568;DHT22;10944;42.590;12.630;2022-11-20T12:08:29;12.80;99.90
21568;DHT22;10944;42.590;12.630;2022-11-20T12:13:39;12.90;99.90
21568;DHT22;10944;42.590;12.630;2022-11-20T12:16:07;12.80;99.90
21568;DHT22;10944;42.590;12.630;2022-11-20T12:18:36;12.80;99.90
21568;DHT22;10944;42.590;12.630;2022-11-20T12:30:07;12.70;99.90
21568;DHT22;10944;42.590;12.630;2022-11-20T12:38:04;12.80;99.90
21568;DHT22;10944;42.590;12.630;2022-11-20T12:43:19;12.90;99.90
21568;DHT22;10944;42.590;12.630;2022-11-20T12:49:03;12.80;99.90
21568;DHT22;10944;42.590;12.630;2022-11-20T13:07:35;13.00;99.90
21568;DHT22;10944;42.590;12.630;2022-11-20T13:10:02;13.00;99.90
21568;DHT22;10944;42.590;12.630;2022-11-20T13:12:40;13.00;99.90
21568;DHT22;10944;42.590;12.630;2022-11-20T13:15:26;13.10;99.90
21568;DHT22;10944;42.590;12.630;2022-11-20T13:18:00;13.00;99.90
21568;DHT22;10944;42.590;12.630;2022-11-20T13:20:27;13.10;99.90
21568;DHT22;10944;42.590;12.630;2022-11-20T13:22:55;13.00;99.90
21568;DHT22;10944;42.590;12.630;2022-11-20T13:25:29;13.00;99.90
21568;DHT22;10944;42.590;12.630;2022-11-20T13:28:00;12.90;99.90
21568;DHT22;10944;42.590;12.630;2022-11-20T13:30:27;13.00;99.90
21568;DHT22;10944;42.590;12.630;2022-11-20T13:33:03;12.90;99.90
21568;DHT22;10944;42.590;12.630;2022-11-20T13:35:36;12.90;99.90
21568;DHT22;10944;42.590;12.630;2022-11-20T13:38:13;12.90;99.90
21568;DHT22;10944;42.590;12.630;2022-11-20T13:40:59;12.90;99.90
21568;DHT22;10944;42.590;12.630;2022-11-20T13:43:47;12.80;99.90
21568;DHT22;10944;42.590;12.630;2022-11-20T13:46:13;12.80;99.90
21568;DHT22;10944;42.590;12.630;2022-11-20T13:48:44;12.80;99.90
21568;DHT22;10944;42.590;12.630;2022-11-20T14:00:15;12.70;99.90
21568;DHT22;10944;42.590;12.630;2022-11-20T14:02:25;12.60;99.90
21568;DHT22;10944;42.590;12.630;2022-11-20T14:04:53;12.70;99.90
21568;DHT22;10944;42.590;12.630;2022-11-20T14:07:21;12.60;99.90
21568;DHT22;10944;42.590;12.630;2022-11-20T14:09:51;12.70;99.90
21568;DHT22;10944;42.590;12.630;2022-11-20T14:12:20;12.60;99.90
21568;DHT22;10944;42.590;12.630;2022-11-20T14:14:51;12.50;99.90
21568;DHT22;10944;42.590;12.630;2022-11-20T14:17:23;12.60;99.90
21568;DHT22;10944;42.590;12.630;2022-11-20T14:19:51;12.60;99.60
21568;DHT22;10944;42.590;12.630;2022-11-20T14:22:19;12.50;99.90
21568;DHT22;10944;42.590;12.630;2022-11-20T14:24:47;12.50;99.90
21568;DHT22;10944;42.590;12.630;2022-11-20T14:27:18;12.40;99.90
21568;DHT22;10944;42.590;12.630;2022-11-20T14:29:47;12.30;99.90
21568;DHT22;10944;42.590;12.630;2022-11-20T14:32:18;12.30;99.90
21568;DHT22;10944;42.590;12.630;2022-11-20T14:34:47;12.40;99.90
21568;DHT22;10944;42.590;12.630;2022-11-20T14:37:20;12.40;99.90
21568;DHT22;10944;42.590;12.630;2022-11-20T14:39:52;12.30;99.90
21568;DHT22;10944;42.590;12.630;2022-11-20T14:42:24;12.30;99.90
21568;DHT22;10944;42.590;12.630;2022-11-20T14:44:54;12.30;99.90
21568;DHT22;10944;42.590;12.630;2022-11-20T14:47:23;12.30;99.90
21568;DHT22;10944;42.590;12.630;2022-11-20T14:49:50;12.30;99.90
21568;DHT22;10944;42.590;12.630;2022-11-20T14:52:21;12.20;99.90
21568;DHT22;10944;42.590;12.630;2022-11-20T14:54:58;12.10;99.90
21568;DHT22;10944;42.590;12.630;2022-11-20T14:57:29;12.00;99.90
21568;DHT22;10944;42.590;12.630;2022-11-20T15:00:20;11.90;99.90
21568;DHT22;10944;42.590;12.630;2022-11-20T15:02:48;11.90;99.90
21568;DHT22;10944;42.590;12.630;2022-11-20T15:05:15;11.90;99.90
21568;DHT22;10944;42.590;12.630;2022-11-20T15:07:45;11.90;99.90
21568;DHT22;10944;42.590;12.630;2022-11-20T15:10:19;11.80;99.90
21568;DHT22;10944;42.590;12.630;2022-11-20T15:12:52;11.80;99.90
21568;DHT22;10944;42.590;12.630;2022-11-20T15:15:58;11.60;99.90
21568;DHT22;10944;42.590;12.630;2022-11-20T15:18:31;11.60;99.90
21568;DHT22;10944;42.590;12.630;2022-11-20T15:21:02;11.60;99.90
21568;DHT22;10944;42.590;12.630;2022-11-20T15:23:29;11.70;99.90
21568;DHT22;10944;42.590;12.630;2022-11-20T15:25:55;11.60;99.90
21568;DHT22;10944;42.590;12.630;2022-11-20T15:28:33;11.70;99.90
21568;DHT22;10944;42.590;12.630;2022-11-20T15:30:59;11.60;99.90
21568;DHT22;10944;42.590;12.630;2022-11-20T15:33:25;11.50;99.90
21568;DHT22;10944;42.590;12.630;2022-11-20T15:35:51;11.60;99.90
21568;DHT22;10944;42.590;12.630;2022-11-20T15:38:17;11.70;99.90
21568;DHT22;10944;42.590;12.630;2022-11-20T15:40:43;11.70;99.90
21568;DHT22;10944;42.590;12.630;2022-11-20T15:43:08;11.60;99.90
21568;DHT22;10944;42.590;12.630;2022-11-20T15:45:46;11.60;99.90
21568;DHT22;10944;42.590;12.630;2022-11-20T15:48:16;11.60;99.90
21568;DHT22;10944;42.590;12.630;2022-11-20T15:51:05;11.60;99.90
21568;DHT22;10944;42.590;12.630;2022-11-20T15:53:32;11.50;99.90
21568;DHT22;10944;42.590;12.630;2022-11-20T15:55:57;11.60;99.90
21568;DHT22;10944;42.590;12.630;2022-11-20T15:58:23;11.60;99.90
21568;DHT22;10944;42.590;12.630;2022-11-20T16:00:50;11.60;99.90
21568;DHT22;10944;42.590;12.630;2022-11-20T16:03:17;11.50;99.90
21568;DHT22;10944;42.590;12.630;2022-11-20T16:05:43;11.50;99.90
21568;DHT22;10944;42.590;12.630;2022-11-20T16:08:09;11.50;99.90
21568;DHT22;10944;42.590;12.630;2022-11-20T16:10:35;11.50;99.90
21568;DHT22;10944;42.590;12.630;2022-11-20T16:13:02;11.40;99.90
21568;DHT22;10944;42.590;12.630;2022-11-20T16:15:51;11.20;99.90
21568;DHT22;10944;42.590;12.630;2022-11-20T16:18:20;11.10;99.90
21568;DHT22;10944;42.590;12.630;2022-11-20T16:20:56;11.00;99.90
21568;DHT22;10944;42.590;12.630;2022-11-20T16:23:22;11.00;99.90
21568;DHT22;10944;42.590;12.630;2022-11-20T16:25:48;11.20;99.90
21568;DHT22;10944;42.590;12.630;2022-11-20T16:28:14;11.10;99.90
21568;DHT22;10944;42.590;12.630;2022-11-20T16:30:40;11.00;99.90
21568;DHT22;10944;42.590;12.630;2022-11-20T16:33:10;11.00;99.90
21568;DHT22;10944;42.590;12.630;2022-11-20T16:35:37;11.10;99.90
21568;DHT22;10944;42.590;12.630;2022-11-20T16:38:03;11.00;99.90
21568;DHT22;10944;42.590;12.630;2022-11-20T16:40:29;11.00;99.90
21568;DHT22;10944;42.590;12.630;2022-11-20T16:42:55;11.00;99.90
21568;DHT22;10944;42.590;12.630;2022-11-20T16:45:22;11.10;99.90
21568;DHT22;10944;42.590;12.630;2022-11-20T16:47:48;11.00;99.90
21568;DHT22;10944;42.590;12.630;2022-11-20T16:50:14;11.00;99.90
21568;DHT22;10944;42.590;12.630;2022-11-20T16:52:40;10.70;99.90
21568;DHT22;10944;42.590;12.630;2022-11-20T16:55:06;10.50;99.90
21568;DHT22;10944;42.590;12.630;2022-11-20T16:57:32;10.30;99.90
21568;DHT22;10944;42.590;12.630;2022-11-20T16:59:58;10.20;99.90
21568;DHT22;10944;42.590;12.630;2022-11-20T17:02:24;10.00;99.90
21568;DHT22;10944;42.590;12.630;2022-11-20T17:04:51;10.00;99.90
21568;DHT22;10944;42.590;12.630;2022-11-20T17:07:17;10.00;99.90
21568;DHT22;10944;42.590;12.630;2022-11-20T17:09:43;9.90;99.90